Loznica, Serbia
Current Conditions -  °F | °C
As of 11:00 AM on Wednesday 26 Nov 2014 (Local Time) from LQTZ Reporting Station
Haze Haze  
Wind Chill:   Ceiling: Unl
Heat Index:   Visibility: 3mi
Dew Point:   Wind: 8mph
Humidity: 93%   Direction: 100°E
Pressure: 30.21"   Gusts: NA
Location:  44.53°N, 19.22°E
Report Text: LQTZ 260900Z 10007KT 070V130 5000 BR FEW017 03/02 Q1023
Loading
Personal Weather Stations






























Interactive Weather Map New forecast layout! Learn more

10-Day Weather Forecast

Advertisements
Track Severe Weather on mobile